IBE6970 GCLP-GOBD
Flight info
| Callsign | IBE6970 |
|---|---|
| Flight time | 2h 31m |
| Altitude | 33000 |
| Route | REMGI DCT ROTUM DCT DKH/N0464F340 DCT PE UB600 LIMAX LIMAX1G |
| Aircraft | A320/M-SDE3FGHIRWY/LB1 |
Departure
| Time | 2026-05-05 14:56 |
|---|---|
| Airport | Gran Canaria Airport (GCLP) |
Arrival
| Time | 2026-05-05 17:27 |
|---|---|
| Airport | Blaise Diagne International Airport (GOBD) |
| Time | Latitude | Longitude | Altitude | Speed | Heading |
|---|---|---|---|---|---|
| 2026-05-05 14:28 | 27.93773 | -15.38855 | 85 ft | 0 kts | 291° |
| 2026-05-05 14:47 | 27.93770 | -15.38847 | 87 ft | 4 kts | 291° |
| 2026-05-05 14:47 | 27.93760 | -15.38819 | 84 ft | 4 kts | 291° |
| 2026-05-05 14:47 | 27.93753 | -15.38795 | 85 ft | 4 kts | 277° |
| 2026-05-05 14:47 | 27.93758 | -15.38770 | 85 ft | 4 kts | 223° |
| 2026-05-05 14:48 | 27.93779 | -15.38755 | 86 ft | 2 kts | 201° |
| 2026-05-05 14:48 | 27.93781 | -15.38754 | 83 ft | 0 kts | 201° |
| 2026-05-05 14:50 | 27.93780 | -15.38754 | 83 ft | 1 kts | 201° |
| 2026-05-05 14:50 | 27.93744 | -15.38770 | 86 ft | 10 kts | 201° |
| 2026-05-05 14:51 | 27.93671 | -15.38803 | 86 ft | 12 kts | 201° |
| 2026-05-05 14:51 | 27.93593 | -15.38838 | 87 ft | 13 kts | 201° |
| 2026-05-05 14:51 | 27.93502 | -15.38874 | 84 ft | 15 kts | 195° |
| 2026-05-05 14:51 | 27.93426 | -15.38803 | 69 ft | 14 kts | 110° |
| 2026-05-05 14:52 | 27.93331 | -15.38788 | 72 ft | 19 kts | 201° |
| 2026-05-05 14:52 | 27.93200 | -15.38845 | 71 ft | 22 kts | 201° |
| 2026-05-05 14:52 | 27.93060 | -15.38915 | 76 ft | 22 kts | 201° |
| 2026-05-05 14:52 | 27.92910 | -15.38981 | 83 ft | 24 kts | 201° |
| 2026-05-05 14:53 | 27.92756 | -15.39049 | 85 ft | 24 kts | 201° |
| 2026-05-05 14:53 | 27.92600 | -15.39117 | 91 ft | 24 kts | 202° |
| 2026-05-05 14:53 | 27.92444 | -15.39187 | 97 ft | 25 kts | 201° |
| 2026-05-05 14:53 | 27.92283 | -15.39258 | 100 ft | 25 kts | 201° |
| 2026-05-05 14:54 | 27.92112 | -15.39334 | 98 ft | 29 kts | 201° |
| 2026-05-05 14:54 | 27.91967 | -15.39396 | 96 ft | 17 kts | 193° |
| 2026-05-05 14:54 | 27.91904 | -15.39299 | 89 ft | 21 kts | 74° |
| 2026-05-05 14:54 | 27.91864 | -15.39130 | 84 ft | 25 kts | 111° |
| 2026-05-05 14:55 | 27.91884 | -15.39006 | 69 ft | 18 kts | 26° |
| 2026-05-05 14:55 | 27.92073 | -15.38921 | 66 ft | 56 kts | 21° |
| 2026-05-05 14:55 | 27.92657 | -15.38665 | 51 ft | 121 kts | 21° |
| 2026-05-05 14:55 | 27.93608 | -15.38244 | 88 ft | 165 kts | 21° |
| 2026-05-05 14:56 | 27.94668 | -15.37776 | 728 ft | 164 kts | 22° |
| 2026-05-05 14:56 | 27.95730 | -15.37291 | 1370 ft | 165 kts | 26° |
| 2026-05-05 14:56 | 27.96596 | -15.36445 | 1908 ft | 172 kts | 61° |
| 2026-05-05 14:56 | 27.96820 | -15.35057 | 2178 ft | 194 kts | 99° |
| 2026-05-05 14:57 | 27.96199 | -15.33605 | 2403 ft | 222 kts | 136° |
| 2026-05-05 14:57 | 27.95084 | -15.32898 | 2660 ft | 241 kts | 168° |
| 2026-05-05 14:57 | 27.94072 | -15.32783 | 2876 ft | 255 kts | 179° |
| 2026-05-05 14:57 | 27.92255 | -15.32871 | 3542 ft | 266 kts | 185° |
| 2026-05-05 14:58 | 27.90403 | -15.33091 | 4383 ft | 269 kts | 186° |
| 2026-05-05 14:58 | 27.88532 | -15.33346 | 5216 ft | 273 kts | 187° |
| 2026-05-05 14:58 | 27.86631 | -15.33598 | 6044 ft | 277 kts | 186° |
| 2026-05-05 14:58 | 27.84705 | -15.33837 | 6865 ft | 280 kts | 186° |
| 2026-05-05 14:59 | 27.82766 | -15.34060 | 7660 ft | 282 kts | 185° |
| 2026-05-05 14:59 | 27.80804 | -15.34270 | 8425 ft | 284 kts | 186° |
| 2026-05-05 14:59 | 27.78824 | -15.34476 | 9143 ft | 288 kts | 186° |
| 2026-05-05 14:59 | 27.76814 | -15.34687 | 9842 ft | 292 kts | 187° |
| 2026-05-05 15:00 | 27.74769 | -15.34901 | 10372 ft | 304 kts | 187° |
| 2026-05-05 15:00 | 27.73339 | -15.35049 | 10482 ft | 319 kts | 187° |
| 2026-05-05 15:00 | 27.70244 | -15.35365 | 10650 ft | 349 kts | 187° |
| 2026-05-05 15:00 | 27.67769 | -15.35617 | 10959 ft | 363 kts | 187° |
| 2026-05-05 15:01 | 27.65264 | -15.35826 | 11532 ft | 369 kts | 182° |
| 2026-05-05 15:01 | 27.62687 | -15.35595 | 12196 ft | 374 kts | 174° |
| 2026-05-05 15:01 | 27.60106 | -15.35168 | 12860 ft | 376 kts | 174° |
| 2026-05-05 15:01 | 27.57504 | -15.34745 | 13505 ft | 379 kts | 174° |
| 2026-05-05 15:02 | 27.54890 | -15.34326 | 14131 ft | 381 kts | 175° |
| 2026-05-05 15:02 | 27.52254 | -15.33906 | 14745 ft | 384 kts | 175° |
| 2026-05-05 15:02 | 27.49598 | -15.33483 | 15345 ft | 387 kts | 175° |
| 2026-05-05 15:02 | 27.46930 | -15.33053 | 15955 ft | 389 kts | 175° |
| 2026-05-05 15:03 | 27.44242 | -15.32617 | 16545 ft | 391 kts | 175° |
| 2026-05-05 15:03 | 27.41544 | -15.32180 | 17095 ft | 394 kts | 175° |
| 2026-05-05 15:03 | 27.38821 | -15.31745 | 17648 ft | 396 kts | 175° |
| 2026-05-05 15:03 | 27.36087 | -15.31306 | 18211 ft | 398 kts | 175° |
| 2026-05-05 15:04 | 27.33330 | -15.30864 | 18720 ft | 401 kts | 176° |
| 2026-05-05 15:04 | 27.30559 | -15.30418 | 19221 ft | 404 kts | 175° |
| 2026-05-05 15:04 | 27.27766 | -15.29967 | 19697 ft | 406 kts | 176° |
| 2026-05-05 15:04 | 27.24958 | -15.29514 | 20148 ft | 410 kts | 176° |
| 2026-05-05 15:05 | 27.19281 | -15.28605 | 21027 ft | 415 kts | 176° |
| 2026-05-05 15:05 | 27.16417 | -15.28146 | 21454 ft | 417 kts | 176° |
| 2026-05-05 15:05 | 27.13536 | -15.27683 | 21850 ft | 419 kts | 176° |
| 2026-05-05 15:06 | 27.10640 | -15.27295 | 22235 ft | 419 kts | 181° |
| 2026-05-05 15:06 | 27.07738 | -15.27393 | 22609 ft | 417 kts | 190° |
| 2026-05-05 15:06 | 27.04892 | -15.27998 | 22971 ft | 416 kts | 196° |
| 2026-05-05 15:06 | 27.02061 | -15.28721 | 23322 ft | 419 kts | 196° |
| 2026-05-05 15:07 | 26.99212 | -15.29445 | 23664 ft | 421 kts | 196° |
| 2026-05-05 15:07 | 26.96347 | -15.30168 | 23997 ft | 423 kts | 196° |
| 2026-05-05 15:07 | 26.93469 | -15.30891 | 24320 ft | 425 kts | 195° |
| 2026-05-05 15:07 | 26.90576 | -15.31613 | 24638 ft | 427 kts | 195° |
| 2026-05-05 15:08 | 26.87668 | -15.32337 | 24955 ft | 429 kts | 195° |
| 2026-05-05 15:08 | 26.84750 | -15.33066 | 25240 ft | 431 kts | 195° |
| 2026-05-05 15:08 | 26.81816 | -15.33802 | 25525 ft | 433 kts | 196° |
| 2026-05-05 15:08 | 26.78872 | -15.34539 | 25811 ft | 434 kts | 195° |
| 2026-05-05 15:09 | 26.75918 | -15.35278 | 26081 ft | 436 kts | 195° |
| 2026-05-05 15:09 | 26.72950 | -15.36019 | 26342 ft | 438 kts | 196° |
| 2026-05-05 15:09 | 26.69967 | -15.36766 | 26599 ft | 440 kts | 196° |
| 2026-05-05 15:09 | 26.66976 | -15.37514 | 26844 ft | 441 kts | 195° |
| 2026-05-05 15:10 | 26.63974 | -15.38268 | 27088 ft | 443 kts | 196° |
| 2026-05-05 15:10 | 26.60967 | -15.39022 | 27323 ft | 444 kts | 196° |
| 2026-05-05 15:10 | 26.57987 | -15.39766 | 27541 ft | 445 kts | 195° |
| 2026-05-05 15:10 | 26.54917 | -15.40530 | 27778 ft | 446 kts | 195° |
| 2026-05-05 15:11 | 26.51933 | -15.41270 | 28070 ft | 445 kts | 196° |
| 2026-05-05 15:11 | 26.48911 | -15.42022 | 28355 ft | 445 kts | 196° |
| 2026-05-05 15:11 | 26.45899 | -15.42768 | 28642 ft | 444 kts | 196° |
| 2026-05-05 15:11 | 26.42878 | -15.43513 | 28948 ft | 444 kts | 195° |
| 2026-05-05 15:12 | 26.39865 | -15.44257 | 29264 ft | 443 kts | 196° |
| 2026-05-05 15:12 | 26.36864 | -15.45006 | 29557 ft | 441 kts | 196° |
| 2026-05-05 15:12 | 26.33873 | -15.45756 | 29835 ft | 441 kts | 196° |
| 2026-05-05 15:12 | 26.30886 | -15.46508 | 30133 ft | 440 kts | 196° |
| 2026-05-05 15:13 | 26.27901 | -15.47254 | 30414 ft | 439 kts | 196° |
| 2026-05-05 15:13 | 26.24922 | -15.47997 | 30706 ft | 438 kts | 196° |
| 2026-05-05 15:13 | 26.21948 | -15.48733 | 30992 ft | 437 kts | 196° |
| 2026-05-05 15:13 | 26.18984 | -15.49465 | 31274 ft | 436 kts | 196° |
| 2026-05-05 15:14 | 26.16022 | -15.50198 | 31546 ft | 435 kts | 196° |
| 2026-05-05 15:14 | 26.13072 | -15.50929 | 31827 ft | 434 kts | 196° |
| 2026-05-05 15:14 | 26.10129 | -15.51656 | 32109 ft | 433 kts | 196° |
| 2026-05-05 15:14 | 26.07190 | -15.52381 | 32370 ft | 432 kts | 196° |
| 2026-05-05 15:15 | 26.04261 | -15.53105 | 32621 ft | 431 kts | 196° |
| 2026-05-05 15:15 | 26.01339 | -15.53826 | 32873 ft | 430 kts | 196° |
| 2026-05-05 15:15 | 25.98417 | -15.54547 | 33124 ft | 430 kts | 196° |
| 2026-05-05 15:15 | 25.96486 | -15.55024 | 33285 ft | 429 kts | 196° |
| 2026-05-05 15:16 | 25.93572 | -15.55746 | 33533 ft | 428 kts | 196° |
| 2026-05-05 15:16 | 25.90666 | -15.56463 | 33765 ft | 428 kts | 197° |
| 2026-05-05 15:16 | 25.87764 | -15.57183 | 34013 ft | 427 kts | 197° |
| 2026-05-05 15:16 | 25.84865 | -15.57901 | 34271 ft | 426 kts | 197° |
| 2026-05-05 15:17 | 25.81978 | -15.58612 | 34509 ft | 425 kts | 197° |
| 2026-05-05 15:17 | 25.79090 | -15.59320 | 34738 ft | 425 kts | 197° |
| 2026-05-05 15:17 | 25.76207 | -15.60026 | 34915 ft | 424 kts | 197° |
| 2026-05-05 15:18 | 25.70414 | -15.61449 | 34960 ft | 428 kts | 197° |
| 2026-05-05 15:18 | 25.64595 | -15.62870 | 34960 ft | 429 kts | 197° |
| 2026-05-05 15:19 | 25.58767 | -15.64289 | 34962 ft | 429 kts | 197° |
| 2026-05-05 15:19 | 25.52942 | -15.65721 | 34949 ft | 429 kts | 197° |
| 2026-05-05 15:20 | 25.47118 | -15.67151 | 34950 ft | 429 kts | 197° |
| 2026-05-05 15:20 | 25.41286 | -15.68575 | 34951 ft | 429 kts | 197° |
| 2026-05-05 15:21 | 25.35498 | -15.69991 | 34946 ft | 429 kts | 197° |
| 2026-05-05 15:21 | 25.29664 | -15.71412 | 34945 ft | 429 kts | 197° |
| 2026-05-05 15:22 | 25.23830 | -15.72835 | 34945 ft | 429 kts | 197° |
| 2026-05-05 15:22 | 25.17999 | -15.74269 | 34930 ft | 429 kts | 197° |
| 2026-05-05 15:23 | 25.12162 | -15.75690 | 34924 ft | 430 kts | 197° |
| 2026-05-05 15:23 | 25.06321 | -15.77102 | 34915 ft | 430 kts | 197° |
| 2026-05-05 15:24 | 25.00466 | -15.78513 | 34906 ft | 431 kts | 194° |
| 2026-05-05 15:24 | 24.94468 | -15.79251 | 34899 ft | 435 kts | 190° |
| 2026-05-05 15:25 | 24.88443 | -15.79895 | 34899 ft | 435 kts | 190° |
| 2026-05-05 15:25 | 24.82410 | -15.80529 | 34895 ft | 436 kts | 190° |
| 2026-05-05 15:26 | 24.76374 | -15.81172 | 34893 ft | 436 kts | 190° |
| 2026-05-05 15:26 | 24.70342 | -15.81822 | 34892 ft | 436 kts | 190° |
| 2026-05-05 15:27 | 24.64300 | -15.82461 | 34892 ft | 436 kts | 190° |
| 2026-05-05 15:27 | 24.58252 | -15.83103 | 34887 ft | 436 kts | 190° |
| 2026-05-05 15:28 | 24.52213 | -15.83744 | 34883 ft | 436 kts | 190° |
| 2026-05-05 15:28 | 24.46168 | -15.84382 | 34880 ft | 436 kts | 190° |
| 2026-05-05 15:29 | 24.40161 | -15.85020 | 34879 ft | 436 kts | 190° |
| 2026-05-05 15:29 | 24.34116 | -15.85669 | 34873 ft | 437 kts | 190° |
| 2026-05-05 15:30 | 24.28061 | -15.86319 | 34874 ft | 437 kts | 190° |
| 2026-05-05 15:30 | 24.22010 | -15.86960 | 34871 ft | 437 kts | 190° |
| 2026-05-05 15:31 | 24.15948 | -15.87596 | 34875 ft | 437 kts | 190° |
| 2026-05-05 15:31 | 24.09890 | -15.88233 | 34873 ft | 438 kts | 190° |
| 2026-05-05 15:32 | 24.03832 | -15.88872 | 34874 ft | 438 kts | 190° |
| 2026-05-05 15:32 | 23.97773 | -15.89512 | 34875 ft | 438 kts | 190° |
| 2026-05-05 15:33 | 23.91710 | -15.90150 | 34877 ft | 438 kts | 190° |
| 2026-05-05 15:33 | 23.85649 | -15.90785 | 34876 ft | 438 kts | 190° |
| 2026-05-05 15:34 | 23.79587 | -15.91424 | 34875 ft | 437 kts | 190° |
| 2026-05-05 15:34 | 23.73602 | -15.92382 | 34877 ft | 432 kts | 200° |
| 2026-05-05 15:35 | 23.67973 | -15.94582 | 34873 ft | 429 kts | 204° |
| 2026-05-05 15:35 | 23.62366 | -15.96841 | 34873 ft | 430 kts | 204° |
| 2026-05-05 15:36 | 23.56759 | -15.99088 | 34869 ft | 430 kts | 204° |
| 2026-05-05 15:36 | 23.51183 | -16.01323 | 34868 ft | 430 kts | 204° |
| 2026-05-05 15:37 | 23.45562 | -16.03578 | 34870 ft | 430 kts | 204° |
| 2026-05-05 15:37 | 23.39946 | -16.05829 | 34871 ft | 430 kts | 204° |
| 2026-05-05 15:38 | 23.34324 | -16.08087 | 34871 ft | 430 kts | 204° |
| 2026-05-05 15:38 | 23.28705 | -16.10328 | 34869 ft | 430 kts | 204° |
| 2026-05-05 15:39 | 23.23080 | -16.12569 | 34867 ft | 430 kts | 204° |
| 2026-05-05 15:39 | 23.17458 | -16.14821 | 34867 ft | 430 kts | 204° |
| 2026-05-05 15:40 | 23.11833 | -16.17070 | 34862 ft | 431 kts | 204° |
| 2026-05-05 15:40 | 23.06208 | -16.19318 | 34862 ft | 431 kts | 204° |
| 2026-05-05 15:41 | 23.00567 | -16.21556 | 34864 ft | 431 kts | 204° |
| 2026-05-05 15:41 | 22.94930 | -16.23794 | 34865 ft | 432 kts | 204° |
| 2026-05-05 15:42 | 22.89292 | -16.26042 | 34863 ft | 432 kts | 204° |
| 2026-05-05 15:42 | 22.83639 | -16.28295 | 34864 ft | 433 kts | 204° |
| 2026-05-05 15:43 | 22.77988 | -16.30536 | 34866 ft | 433 kts | 204° |
| 2026-05-05 15:43 | 22.72326 | -16.32772 | 34865 ft | 433 kts | 204° |
| 2026-05-05 15:44 | 22.66704 | -16.34999 | 34867 ft | 433 kts | 204° |
| 2026-05-05 15:44 | 22.60997 | -16.37254 | 34869 ft | 433 kts | 204° |
| 2026-05-05 15:45 | 22.55333 | -16.39495 | 34870 ft | 434 kts | 204° |
| 2026-05-05 15:45 | 22.49703 | -16.41726 | 34869 ft | 434 kts | 204° |
| 2026-05-05 15:46 | 22.44029 | -16.43962 | 34868 ft | 433 kts | 204° |
| 2026-05-05 15:46 | 22.38377 | -16.46198 | 34862 ft | 433 kts | 204° |
| 2026-05-05 15:47 | 22.32721 | -16.48435 | 34861 ft | 433 kts | 204° |
| 2026-05-05 15:47 | 22.27050 | -16.50673 | 34863 ft | 434 kts | 204° |
| 2026-05-05 15:48 | 22.21371 | -16.52906 | 34867 ft | 435 kts | 204° |
| 2026-05-05 15:48 | 22.15682 | -16.55133 | 34872 ft | 435 kts | 204° |
| 2026-05-05 15:49 | 22.09988 | -16.57373 | 34877 ft | 436 kts | 204° |
| 2026-05-05 15:49 | 22.04290 | -16.59616 | 34882 ft | 436 kts | 204° |
| 2026-05-05 15:50 | 21.98590 | -16.61857 | 34884 ft | 436 kts | 204° |
| 2026-05-05 15:50 | 21.92879 | -16.64092 | 34884 ft | 437 kts | 204° |
| 2026-05-05 15:51 | 21.87159 | -16.66323 | 34889 ft | 437 kts | 204° |
| 2026-05-05 15:51 | 21.81438 | -16.68554 | 34890 ft | 437 kts | 204° |
| 2026-05-05 15:52 | 21.75722 | -16.70784 | 34890 ft | 437 kts | 204° |
| 2026-05-05 15:52 | 21.70047 | -16.73002 | 34891 ft | 437 kts | 204° |
| 2026-05-05 15:53 | 21.64339 | -16.75226 | 34891 ft | 437 kts | 203° |
| 2026-05-05 15:53 | 21.58625 | -16.77450 | 34889 ft | 437 kts | 204° |
| 2026-05-05 15:54 | 21.52918 | -16.79675 | 34889 ft | 436 kts | 203° |
| 2026-05-05 15:54 | 21.47216 | -16.81897 | 34887 ft | 436 kts | 203° |
| 2026-05-05 15:55 | 21.41507 | -16.84108 | 34887 ft | 437 kts | 203° |
| 2026-05-05 15:55 | 21.35757 | -16.86344 | 34890 ft | 437 kts | 203° |
| 2026-05-05 15:56 | 21.30083 | -16.88545 | 34890 ft | 436 kts | 203° |
| 2026-05-05 15:56 | 21.24374 | -16.90761 | 34890 ft | 436 kts | 203° |
| 2026-05-05 15:57 | 21.18662 | -16.92978 | 34889 ft | 436 kts | 203° |
| 2026-05-05 15:57 | 21.12951 | -16.95189 | 34888 ft | 436 kts | 203° |
| 2026-05-05 15:58 | 21.07240 | -16.97390 | 34889 ft | 437 kts | 203° |
| 2026-05-05 15:58 | 21.01519 | -16.99594 | 34887 ft | 437 kts | 203° |
| 2026-05-05 15:59 | 20.95811 | -17.01801 | 34887 ft | 436 kts | 203° |
| 2026-05-05 15:59 | 20.89957 | -17.03572 | 34886 ft | 442 kts | 191° |
| 2026-05-05 16:00 | 20.83791 | -17.04057 | 34886 ft | 445 kts | 188° |
| 2026-05-05 16:00 | 20.77621 | -17.04517 | 34886 ft | 445 kts | 188° |
| 2026-05-05 16:01 | 20.71481 | -17.04974 | 34886 ft | 445 kts | 188° |
| 2026-05-05 16:01 | 20.65304 | -17.05429 | 34886 ft | 445 kts | 188° |
| 2026-05-05 16:02 | 20.59123 | -17.05886 | 34887 ft | 445 kts | 188° |
| 2026-05-05 16:02 | 20.52939 | -17.06341 | 34888 ft | 445 kts | 188° |
| 2026-05-05 16:03 | 20.46758 | -17.06800 | 34890 ft | 446 kts | 188° |
| 2026-05-05 16:03 | 20.40570 | -17.07252 | 34891 ft | 446 kts | 188° |
| 2026-05-05 16:04 | 20.34379 | -17.07699 | 34892 ft | 446 kts | 188° |
| 2026-05-05 16:04 | 20.28196 | -17.08153 | 34889 ft | 445 kts | 188° |
| 2026-05-05 16:05 | 20.22017 | -17.08612 | 34887 ft | 445 kts | 188° |
| 2026-05-05 16:05 | 20.15833 | -17.09058 | 34886 ft | 445 kts | 188° |
| 2026-05-05 16:06 | 20.10654 | -17.09434 | 34887 ft | 445 kts | 188° |
| 2026-05-05 16:06 | 20.04472 | -17.09887 | 34887 ft | 445 kts | 188° |
| 2026-05-05 16:07 | 19.98330 | -17.10344 | 34885 ft | 445 kts | 188° |
| 2026-05-05 16:07 | 19.92107 | -17.10802 | 34881 ft | 445 kts | 188° |
| 2026-05-05 16:08 | 19.85958 | -17.11250 | 34881 ft | 446 kts | 188° |
| 2026-05-05 16:08 | 19.79768 | -17.11698 | 34882 ft | 446 kts | 188° |
| 2026-05-05 16:09 | 19.73578 | -17.12152 | 34884 ft | 446 kts | 188° |
| 2026-05-05 16:09 | 19.67386 | -17.12607 | 34886 ft | 445 kts | 188° |
| 2026-05-05 16:10 | 19.61203 | -17.13055 | 34876 ft | 445 kts | 188° |
| 2026-05-05 16:10 | 19.55016 | -17.13498 | 34875 ft | 446 kts | 188° |
| 2026-05-05 16:11 | 19.48812 | -17.13944 | 34881 ft | 447 kts | 188° |
| 2026-05-05 16:12 | 19.36404 | -17.14838 | 34885 ft | 447 kts | 188° |
| 2026-05-05 16:13 | 19.20904 | -17.15970 | 34882 ft | 447 kts | 188° |
| 2026-05-05 16:13 | 19.14707 | -17.16415 | 34880 ft | 446 kts | 188° |
| 2026-05-05 16:14 | 19.02310 | -17.17313 | 34874 ft | 446 kts | 188° |
| 2026-05-05 16:15 | 18.89905 | -17.18216 | 34869 ft | 447 kts | 188° |
| 2026-05-05 16:16 | 18.77530 | -17.19102 | 34869 ft | 448 kts | 188° |
| 2026-05-05 16:17 | 18.68207 | -17.19773 | 34872 ft | 448 kts | 188° |
| 2026-05-05 16:18 | 18.58884 | -17.20444 | 34872 ft | 447 kts | 188° |
| 2026-05-05 16:19 | 18.49557 | -17.21112 | 34874 ft | 448 kts | 188° |
| 2026-05-05 16:19 | 18.40222 | -17.21768 | 34877 ft | 449 kts | 188° |
| 2026-05-05 16:20 | 18.27762 | -17.22680 | 34883 ft | 449 kts | 188° |
| 2026-05-05 16:22 | 18.12165 | -17.23791 | 34897 ft | 449 kts | 188° |
| 2026-05-05 16:23 | 17.99675 | -17.24688 | 34901 ft | 450 kts | 188° |
| 2026-05-05 16:23 | 17.90359 | -17.25349 | 34900 ft | 449 kts | 188° |
| 2026-05-05 16:24 | 17.84117 | -17.25792 | 34899 ft | 450 kts | 188° |
| 2026-05-05 16:25 | 17.74752 | -17.26463 | 34900 ft | 450 kts | 188° |
| 2026-05-05 16:25 | 17.65392 | -17.27126 | 34898 ft | 449 kts | 188° |
| 2026-05-05 16:26 | 17.52922 | -17.28004 | 34888 ft | 449 kts | 188° |
| 2026-05-05 16:27 | 17.46687 | -17.28445 | 34881 ft | 449 kts | 187° |
| 2026-05-05 16:27 | 17.40448 | -17.28894 | 34879 ft | 449 kts | 188° |
| 2026-05-05 16:28 | 17.34209 | -17.29338 | 34886 ft | 450 kts | 187° |
| 2026-05-05 16:28 | 17.28005 | -17.29771 | 34884 ft | 449 kts | 187° |
| 2026-05-05 16:29 | 17.21758 | -17.30215 | 34886 ft | 450 kts | 187° |
| 2026-05-05 16:29 | 17.15515 | -17.30663 | 34890 ft | 450 kts | 187° |
| 2026-05-05 16:30 | 17.09267 | -17.31101 | 34894 ft | 450 kts | 187° |
| 2026-05-05 16:30 | 17.03019 | -17.31545 | 34894 ft | 450 kts | 187° |
| 2026-05-05 16:31 | 16.96775 | -17.31988 | 34896 ft | 450 kts | 187° |
| 2026-05-05 16:31 | 16.90535 | -17.32422 | 34896 ft | 450 kts | 187° |
| 2026-05-05 16:32 | 16.84286 | -17.32865 | 34895 ft | 450 kts | 187° |
| 2026-05-05 16:32 | 16.78036 | -17.33311 | 34896 ft | 451 kts | 187° |
| 2026-05-05 16:33 | 16.71751 | -17.32965 | 34898 ft | 457 kts | 174° |
| 2026-05-05 16:33 | 16.65481 | -17.31807 | 34894 ft | 457 kts | 174° |
| 2026-05-05 16:34 | 16.59216 | -17.30663 | 34896 ft | 458 kts | 174° |
| 2026-05-05 16:34 | 16.52939 | -17.29522 | 34896 ft | 458 kts | 174° |
| 2026-05-05 16:35 | 16.46668 | -17.28371 | 34897 ft | 458 kts | 174° |
| 2026-05-05 16:35 | 16.40398 | -17.27221 | 34899 ft | 458 kts | 174° |
| 2026-05-05 16:36 | 16.34123 | -17.26077 | 34901 ft | 457 kts | 174° |
| 2026-05-05 16:36 | 16.27850 | -17.24935 | 34904 ft | 457 kts | 174° |
| 2026-05-05 16:37 | 16.21595 | -17.23801 | 34915 ft | 456 kts | 174° |
| 2026-05-05 16:37 | 16.15388 | -17.22670 | 34914 ft | 455 kts | 174° |
| 2026-05-05 16:38 | 16.09150 | -17.21527 | 34915 ft | 455 kts | 174° |
| 2026-05-05 16:38 | 16.02912 | -17.20389 | 34915 ft | 455 kts | 174° |
| 2026-05-05 16:39 | 15.96677 | -17.19264 | 34915 ft | 455 kts | 173° |
| 2026-05-05 16:39 | 15.90447 | -17.18134 | 34915 ft | 454 kts | 173° |
| 2026-05-05 16:40 | 15.84225 | -17.17007 | 34915 ft | 454 kts | 173° |
| 2026-05-05 16:40 | 15.77998 | -17.15880 | 34914 ft | 454 kts | 173° |
| 2026-05-05 16:41 | 15.71775 | -17.14751 | 34914 ft | 454 kts | 173° |
| 2026-05-05 16:41 | 15.65545 | -17.13624 | 34915 ft | 454 kts | 173° |
| 2026-05-05 16:42 | 15.59316 | -17.12497 | 34916 ft | 455 kts | 173° |
| 2026-05-05 16:42 | 15.53087 | -17.11363 | 34915 ft | 455 kts | 173° |
| 2026-05-05 16:43 | 15.46853 | -17.10236 | 34915 ft | 455 kts | 173° |
| 2026-05-05 16:43 | 15.40617 | -17.09113 | 34914 ft | 455 kts | 173° |
| 2026-05-05 16:44 | 15.34379 | -17.08013 | 34912 ft | 453 kts | 177° |
| 2026-05-05 16:44 | 15.28115 | -17.07854 | 34910 ft | 450 kts | 182° |
| 2026-05-05 16:45 | 15.21888 | -17.07798 | 34909 ft | 450 kts | 182° |
| 2026-05-05 16:45 | 15.15617 | -17.07745 | 34906 ft | 451 kts | 182° |
| 2026-05-05 16:46 | 15.09347 | -17.07684 | 34906 ft | 451 kts | 182° |
| 2026-05-05 16:46 | 15.03080 | -17.07622 | 34895 ft | 445 kts | 182° |
| 2026-05-05 16:47 | 15.00038 | -17.07589 | 34892 ft | 428 kts | 182° |
| 2026-05-05 16:47 | 14.97115 | -17.07557 | 34894 ft | 412 kts | 182° |
| 2026-05-05 16:47 | 14.94299 | -17.07529 | 34894 ft | 397 kts | 183° |
| 2026-05-05 16:47 | 14.91564 | -17.07507 | 34895 ft | 391 kts | 183° |
| 2026-05-05 16:48 | 14.86154 | -17.07471 | 34896 ft | 388 kts | 183° |
| 2026-05-05 16:48 | 14.80761 | -17.07425 | 34896 ft | 388 kts | 182° |
| 2026-05-05 16:49 | 14.75366 | -17.07363 | 34893 ft | 388 kts | 182° |
| 2026-05-05 16:49 | 14.69969 | -17.07309 | 34895 ft | 388 kts | 182° |
| 2026-05-05 16:50 | 14.64574 | -17.07261 | 34898 ft | 388 kts | 182° |
| 2026-05-05 16:50 | 14.59179 | -17.07212 | 34895 ft | 388 kts | 182° |
| 2026-05-05 16:51 | 14.53785 | -17.07165 | 34895 ft | 388 kts | 183° |
| 2026-05-05 16:51 | 14.51148 | -17.07515 | 34892 ft | 379 kts | 204° |
| 2026-05-05 16:51 | 14.48926 | -17.08900 | 34896 ft | 373 kts | 227° |
| 2026-05-05 16:52 | 14.47508 | -17.11103 | 34896 ft | 371 kts | 251° |
| 2026-05-05 16:52 | 14.47139 | -17.13728 | 34896 ft | 375 kts | 275° |
| 2026-05-05 16:52 | 14.47897 | -17.16305 | 34896 ft | 382 kts | 299° |
| 2026-05-05 16:52 | 14.49651 | -17.18392 | 34894 ft | 392 kts | 322° |
| 2026-05-05 16:53 | 14.52123 | -17.19627 | 34900 ft | 402 kts | 342° |
| 2026-05-05 16:53 | 14.54908 | -17.20077 | 34888 ft | 410 kts | 360° |
| 2026-05-05 16:53 | 14.57708 | -17.19481 | 34897 ft | 417 kts | 21° |
| 2026-05-05 16:53 | 14.60362 | -17.18246 | 34889 ft | 419 kts | 17° |
| 2026-05-05 16:54 | 14.63177 | -17.17582 | 34896 ft | 413 kts | 360° |
| 2026-05-05 16:54 | 14.66034 | -17.17639 | 34898 ft | 411 kts | 354° |
| 2026-05-05 16:54 | 14.71771 | -17.17751 | 34896 ft | 413 kts | 356° |
| 2026-05-05 16:55 | 14.76539 | -17.17732 | 34895 ft | 413 kts | 357° |
| 2026-05-05 16:55 | 14.82284 | -17.17734 | 34895 ft | 413 kts | 356° |
| 2026-05-05 16:56 | 14.88021 | -17.17783 | 34896 ft | 412 kts | 356° |
| 2026-05-05 16:56 | 14.93759 | -17.17869 | 34896 ft | 412 kts | 355° |
| 2026-05-05 16:57 | 14.99496 | -17.17988 | 34896 ft | 412 kts | 355° |
| 2026-05-05 16:57 | 15.05237 | -17.18107 | 34896 ft | 412 kts | 355° |
| 2026-05-05 16:58 | 15.10967 | -17.18216 | 34896 ft | 412 kts | 355° |
| 2026-05-05 16:58 | 15.16702 | -17.18323 | 34896 ft | 412 kts | 355° |
| 2026-05-05 16:59 | 15.22436 | -17.18431 | 34894 ft | 412 kts | 355° |
| 2026-05-05 16:59 | 15.28172 | -17.18538 | 34896 ft | 412 kts | 355° |
| 2026-05-05 17:00 | 15.33907 | -17.18639 | 34895 ft | 412 kts | 355° |
| 2026-05-05 17:00 | 15.39630 | -17.18737 | 34897 ft | 411 kts | 355° |
| 2026-05-05 17:01 | 15.45352 | -17.18830 | 34906 ft | 411 kts | 355° |
| 2026-05-05 17:01 | 15.51069 | -17.18916 | 34905 ft | 411 kts | 355° |
| 2026-05-05 17:02 | 15.56782 | -17.18998 | 34905 ft | 411 kts | 355° |
| 2026-05-05 17:02 | 15.62461 | -17.19074 | 34905 ft | 411 kts | 355° |
| 2026-05-05 17:03 | 15.68215 | -17.19150 | 34904 ft | 411 kts | 355° |
| 2026-05-05 17:03 | 15.73932 | -17.19224 | 34905 ft | 411 kts | 355° |
| 2026-05-05 17:04 | 15.79646 | -17.19296 | 34905 ft | 411 kts | 355° |
| 2026-05-05 17:04 | 15.85323 | -17.19367 | 34905 ft | 411 kts | 355° |
| 2026-05-05 17:05 | 15.91038 | -17.19432 | 34905 ft | 411 kts | 355° |
| 2026-05-05 17:05 | 15.96754 | -17.19494 | 34905 ft | 411 kts | 355° |
| 2026-05-05 17:06 | 16.02475 | -17.19555 | 34905 ft | 411 kts | 355° |
| 2026-05-05 17:06 | 16.08186 | -17.19592 | 34900 ft | 411 kts | 355° |
| 2026-05-05 17:07 | 16.11054 | -17.19612 | 34351 ft | 417 kts | 355° |
| 2026-05-05 17:07 | 16.14032 | -17.19639 | 32955 ft | 438 kts | 355° |
| 2026-05-05 17:07 | 16.17154 | -17.19427 | 31459 ft | 464 kts | 9° |
| 2026-05-05 17:07 | 16.20263 | -17.18309 | 29901 ft | 485 kts | 26° |
| 2026-05-05 17:08 | 16.23085 | -17.16284 | 28256 ft | 503 kts | 42° |
| 2026-05-05 17:08 | 16.25349 | -17.13471 | 26727 ft | 512 kts | 58° |
| 2026-05-05 17:08 | 16.26862 | -17.10123 | 25438 ft | 512 kts | 73° |
| 2026-05-05 17:08 | 16.27571 | -17.06527 | 24386 ft | 505 kts | 86° |
| 2026-05-05 17:09 | 16.27426 | -17.02935 | 23887 ft | 488 kts | 101° |
| 2026-05-05 17:09 | 16.26563 | -16.99620 | 23773 ft | 464 kts | 113° |
| 2026-05-05 17:09 | 16.25111 | -16.96671 | 23578 ft | 461 kts | 126° |
| 2026-05-05 17:09 | 16.23029 | -16.94096 | 23335 ft | 470 kts | 139° |
| 2026-05-05 17:10 | 16.20416 | -16.92068 | 23082 ft | 469 kts | 152° |
| 2026-05-05 17:10 | 16.17451 | -16.90699 | 22833 ft | 465 kts | 164° |
| 2026-05-05 17:10 | 16.14304 | -16.90039 | 22583 ft | 461 kts | 176° |
| 2026-05-05 17:10 | 16.11121 | -16.90087 | 22333 ft | 457 kts | 188° |
| 2026-05-05 17:11 | 16.07976 | -16.90535 | 22081 ft | 455 kts | 189° |
| 2026-05-05 17:11 | 16.04847 | -16.90996 | 21831 ft | 453 kts | 189° |
| 2026-05-05 17:11 | 16.01731 | -16.91457 | 21582 ft | 451 kts | 189° |
| 2026-05-05 17:11 | 15.98638 | -16.91916 | 21138 ft | 445 kts | 189° |
| 2026-05-05 17:12 | 15.95591 | -16.92366 | 20468 ft | 439 kts | 189° |
| 2026-05-05 17:12 | 15.92586 | -16.92808 | 19835 ft | 433 kts | 188° |
| 2026-05-05 17:12 | 15.89628 | -16.93238 | 19211 ft | 427 kts | 188° |
| 2026-05-05 17:12 | 15.86705 | -16.93659 | 18613 ft | 421 kts | 188° |
| 2026-05-05 17:13 | 15.83820 | -16.94075 | 18028 ft | 416 kts | 188° |
| 2026-05-05 17:13 | 15.80974 | -16.94489 | 17466 ft | 411 kts | 188° |
| 2026-05-05 17:13 | 15.78159 | -16.94900 | 16920 ft | 406 kts | 188° |
| 2026-05-05 17:13 | 15.75383 | -16.95308 | 16418 ft | 401 kts | 188° |
| 2026-05-05 17:14 | 15.72638 | -16.95709 | 15906 ft | 396 kts | 188° |
| 2026-05-05 17:14 | 15.69930 | -16.96104 | 15430 ft | 390 kts | 188° |
| 2026-05-05 17:14 | 15.67251 | -16.96493 | 14964 ft | 387 kts | 188° |
| 2026-05-05 17:14 | 15.64592 | -16.96879 | 14502 ft | 385 kts | 188° |
| 2026-05-05 17:15 | 15.61941 | -16.97265 | 14032 ft | 383 kts | 188° |
| 2026-05-05 17:15 | 15.59315 | -16.97651 | 13551 ft | 381 kts | 188° |
| 2026-05-05 17:15 | 15.56700 | -16.98033 | 13070 ft | 378 kts | 188° |
| 2026-05-05 17:15 | 15.54138 | -16.98408 | 12573 ft | 376 kts | 188° |
| 2026-05-05 17:16 | 15.51560 | -16.98778 | 12216 ft | 373 kts | 187° |
| 2026-05-05 17:16 | 15.48980 | -16.99122 | 12133 ft | 374 kts | 187° |
| 2026-05-05 17:16 | 15.46399 | -16.99446 | 12051 ft | 374 kts | 186° |
| 2026-05-05 17:16 | 15.43818 | -16.99761 | 11974 ft | 373 kts | 186° |
| 2026-05-05 17:17 | 15.41236 | -17.00076 | 11742 ft | 373 kts | 186° |
| 2026-05-05 17:17 | 15.38669 | -17.00391 | 11155 ft | 370 kts | 186° |
| 2026-05-05 17:17 | 15.36156 | -17.00706 | 10957 ft | 356 kts | 187° |
| 2026-05-05 17:17 | 15.33756 | -17.01010 | 10848 ft | 340 kts | 187° |
| 2026-05-05 17:18 | 15.31456 | -17.01304 | 10723 ft | 326 kts | 187° |
| 2026-05-05 17:18 | 15.29245 | -17.01587 | 10597 ft | 314 kts | 187° |
| 2026-05-05 17:18 | 15.27115 | -17.01858 | 10434 ft | 304 kts | 187° |
| 2026-05-05 17:18 | 15.25038 | -17.02120 | 10278 ft | 298 kts | 187° |
| 2026-05-05 17:19 | 15.22978 | -17.02379 | 10212 ft | 299 kts | 187° |
| 2026-05-05 17:19 | 15.20914 | -17.02637 | 10097 ft | 298 kts | 187° |
| 2026-05-05 17:19 | 15.18858 | -17.02896 | 9966 ft | 298 kts | 187° |
| 2026-05-05 17:19 | 15.16803 | -17.03155 | 9807 ft | 298 kts | 187° |
| 2026-05-05 17:20 | 15.14733 | -17.03416 | 9320 ft | 300 kts | 187° |
| 2026-05-05 17:20 | 15.12664 | -17.03676 | 8917 ft | 298 kts | 187° |
| 2026-05-05 17:20 | 15.10606 | -17.03938 | 8482 ft | 298 kts | 187° |
| 2026-05-05 17:20 | 15.08556 | -17.04198 | 8071 ft | 296 kts | 187° |
| 2026-05-05 17:21 | 15.06523 | -17.04453 | 7703 ft | 293 kts | 187° |
| 2026-05-05 17:21 | 15.04531 | -17.04704 | 7254 ft | 292 kts | 187° |
| 2026-05-05 17:21 | 15.02521 | -17.04956 | 6847 ft | 290 kts | 187° |
| 2026-05-05 17:22 | 14.98552 | -17.05458 | 6045 ft | 285 kts | 187° |
| 2026-05-05 17:22 | 14.96591 | -17.05705 | 5648 ft | 283 kts | 187° |
| 2026-05-05 17:22 | 14.94649 | -17.05949 | 5260 ft | 280 kts | 187° |
| 2026-05-05 17:22 | 14.92732 | -17.06192 | 4878 ft | 276 kts | 187° |
| 2026-05-05 17:23 | 14.90830 | -17.06429 | 4495 ft | 273 kts | 187° |
| 2026-05-05 17:23 | 14.88957 | -17.06663 | 4112 ft | 270 kts | 188° |
| 2026-05-05 17:23 | 14.87103 | -17.06896 | 3745 ft | 267 kts | 188° |
| 2026-05-05 17:23 | 14.85283 | -17.07125 | 3378 ft | 259 kts | 188° |
| 2026-05-05 17:24 | 14.83543 | -17.07345 | 3025 ft | 245 kts | 188° |
| 2026-05-05 17:24 | 14.81909 | -17.07446 | 2890 ft | 226 kts | 182° |
| 2026-05-05 17:24 | 14.80407 | -17.07448 | 2832 ft | 206 kts | 181° |
| 2026-05-05 17:24 | 14.79037 | -17.07428 | 2592 ft | 193 kts | 180° |
| 2026-05-05 17:25 | 14.77708 | -17.07409 | 2152 ft | 189 kts | 181° |
| 2026-05-05 17:25 | 14.76840 | -17.07397 | 1788 ft | 188 kts | 181° |
| 2026-05-05 17:25 | 14.75102 | -17.07374 | 1406 ft | 188 kts | 181° |
| 2026-05-05 17:25 | 14.73829 | -17.07357 | 1158 ft | 176 kts | 181° |
| 2026-05-05 17:26 | 14.72663 | -17.07342 | 953 ft | 158 kts | 181° |
| 2026-05-05 17:26 | 14.71606 | -17.07329 | 747 ft | 147 kts | 181° |
| 2026-05-05 17:26 | 14.70603 | -17.07319 | 564 ft | 142 kts | 181° |
| 2026-05-05 17:26 | 14.69625 | -17.07308 | 440 ft | 140 kts | 181° |
| 2026-05-05 17:27 | 14.68653 | -17.07298 | 291 ft | 139 kts | 181° |
| 2026-05-05 17:27 | 14.67796 | -17.07290 | 284 ft | 101 kts | 179° |
| 2026-05-05 17:27 | 14.67265 | -17.07285 | 295 ft | 49 kts | 180° |
| 2026-05-05 17:27 | 14.67095 | -17.07264 | 301 ft | 17 kts | 124° |
| 2026-05-05 17:28 | 14.67079 | -17.07158 | 298 ft | 14 kts | 95° |
| 2026-05-05 17:28 | 14.67076 | -17.07054 | 297 ft | 15 kts | 90° |
| 2026-05-05 17:28 | 14.67120 | -17.06980 | 294 ft | 13 kts | 7° |
| 2026-05-05 17:28 | 14.67192 | -17.06960 | 293 ft | 10 kts | 78° |
| 2026-05-05 17:29 | 14.67161 | -17.06906 | 295 ft | 8 kts | 123° |
| 2026-05-05 17:29 | 14.67139 | -17.06870 | 292 ft | 3 kts | 122° |
| 2026-05-05 17:29 | 14.67131 | -17.06856 | 292 ft | 1 kts | 122° |
| 2026-05-05 17:29 | 14.67128 | -17.06852 | 292 ft | 0 kts | 122° |